Flight Track Log - Related Links

Times and Time Zones

All times are in EST time to prevent confusion due to time zone crossing. See the CES5527 flight status page for this flight to view local times or setup timezone preferences in your user account.

Time Position Orientation Groundspeed Altitude Reporting Facility
EST Latitude Longitude Course Direction KTS MPH feet Rate Location/Type
Fri 07:31:29 AM 31.1892 121.3329 177° South 158 182 500  Level FlightAware ADS-B (ZSSS / SHA)
Fri 07:31:44 AM 31.1788 121.3333 178° South 142 163 1,400 2,571 Climbing FlightAware ADS-B (ZSSS / SHA)
Fri 07:32:04 AM 31.1650 121.3338 178° South 152 175 2,000 1,833 Climbing FlightAware ADS-B (ZSSS / SHA)
Fri 07:32:20 AM 31.1548 121.3345 177° South 153 176 2,500 2,000 Climbing FlightAware ADS-B (ZSSS / SHA)
Fri 07:32:34 AM 31.1441 121.3352 177° South 153 176 3,000 1,655 Climbing FlightAware ADS-B (ZSSS / SHA)
Fri 07:32:49 AM 31.1337 121.3357 177° South 168 193 3,300 1,200 Climbing FlightAware ADS-B (ZSSS / SHA)
Fri 07:33:04 AM 31.1207 121.3364 178° South 186 214 3,600 1,200 Climbing FlightAware ADS-B (ZSSS / SHA)
Fri 07:33:19 AM 31.1063 121.3372 177° South 207 238 3,900 1,000 Climbing FlightAware ADS-B (ZSSS / SHA)
Fri 07:33:34 AM 31.0911 121.3381 177° South 227 261 4,100 1,200 Climbing FlightAware ADS-B (ZSSS / SHA)
Fri 07:33:49 AM 31.0743 121.3383 179° South 240 276 4,500 1,800 Climbing FlightAware ADS-B (ZSSS / SHA)
Fri 07:34:04 AM 31.0607 121.3334 197° South 252 290 5,000 2,100 Climbing FlightAware ADS-B (ZSSS / SHA)
Fri 07:34:09 AM 31.0543 121.3278 217° Southwest 251 289 5,200 2,000 Climbing FlightAware ADS-B (ZSSS / SHA)
Fri 07:34:13 AM 31.0509 121.3237 226° Southwest 251 289 5,300 1,600 Climbing FlightAware ADS-B (ZSSS / SHA)
Fri 07:34:24 AM 31.0444 121.3114 239° Southwest 252 290 5,600 1,500 Climbing FlightAware ADS-B (ZSSS / SHA)
Fri 07:34:29 AM 31.0432 121.3072 251° West 253 291 5,700 333 Climbing FlightAware ADS-B (ZSSS / SHA)
Fri 07:35:00 AM 31.0461 121.2661 275° West 260 299 5,800 480 Climbing FlightAware ADS-B (ZSSS / SHA)
Fri 07:35:19 AM 31.0510 121.2362 281° West 259 298 6,100 1,588 Climbing FlightAware ADS-B (ZSSS / SHA)
Fri 07:35:34 AM 31.0543 121.2153 280° West 265 305 6,700 2,483 Climbing FlightAware ADS-B (ZSSS / SHA)
Fri 07:35:48 AM 31.0573 121.1958 280° West 270 311 7,300 2,690 Climbing FlightAware ADS-B (ZSSS / SHA)
Fri 07:36:03 AM 31.0608 121.1731 280° West 273 314 8,000 1,981 Climbing FlightAware ADS-B (ZSSS / SHA)
Fri 07:37:34 AM 31.1602 121.1211 336° Northwest 323 372 10,800 1,636 Climbing FlightAware ADS-B (ZSSS / SHA)
Fri 07:38:04 AM 31.2076 121.1179 357° North 354 407 11,300 1,350 Climbing FlightAware ADS-B (ZSSS / SHA)
Fri 07:38:14 AM 31.2242 121.1172 358° North 360 414 11,700 2,700 Climbing FlightAware ADS-B (ZSSS / SHA)
Fri 07:38:44 AM 31.2752 121.1172 360° North 361 415 13,100 2,500 Climbing FlightAware ADS-B (ZSSS / SHA)
Fri 07:39:14 AM 31.3252 121.1171 360° North 371 427 14,200 2,000 Climbing FlightAware ADS-B (ZSSS / SHA)
Fri 07:39:44 AM 31.3785 121.1168 360° North 384 442 15,100 2,100 Climbing FlightAware ADS-B (ZSSS / SHA)
Fri 07:40:14 AM 31.4315 121.1166 360° North 387 445 16,300 2,462 Climbing FlightAware ADS-B (ZSSS / SHA)
Fri 07:40:23 AM 31.4480 121.1142 353° North 380 437 16,700 2,667 Climbing FlightAware ADS-B (ZSSS / SHA)
Fri 07:42:00 AM 31.5111 120.9661 297° West  Level Estimated
Fri 07:43:00 AM 31.5501 120.8744 297° West  Level Estimated
Fri 07:44:00 AM 31.5890 120.7826 296° West  Level Estimated
Fri 07:45:00 AM 31.6278 120.6907 296° West  Level Estimated
Fri 07:46:00 AM 31.6666 120.5987 296° West  Level Estimated
Fri 07:47:00 AM 31.7053 120.5067 296° West  Level Estimated
Fri 07:48:00 AM 31.7439 120.4146 296° West  Level Estimated
Fri 07:49:00 AM 31.7825 120.3224 296° West  Level Estimated
Fri 07:50:00 AM 31.8210 120.2301 296° West  Level Estimated
Fri 07:51:00 AM 31.8594 120.1378 296° West  Level Estimated
Fri 07:52:00 AM 31.8978 120.0454 296° West  Level Estimated
Fri 07:53:00 AM 31.9361 119.9529 296° West  Level Estimated
Fri 07:54:00 AM 31.9743 119.8603 296° West  Level Estimated
Fri 07:55:00 AM 32.0125 119.7677 296° West  Level Estimated
Fri 07:56:00 AM 32.0506 119.6750 296° West  Level Estimated
Fri 07:57:00 AM 32.0886 119.5822 296° West  Level Estimated
Fri 07:58:00 AM 32.1266 119.4893 296° West  Level Estimated
Fri 07:59:00 AM 32.1645 119.3963 296° West  Level Estimated
Fri 08:00:00 AM 32.2024 119.3033 296° West  Level Estimated
Fri 08:01:00 AM 32.2401 119.2102 296° West  Level Estimated
Fri 08:02:00 AM 32.2778 119.1170 296° West  Level Estimated
Fri 08:03:00 AM 32.3154 119.0237 296° West  Level Estimated
Fri 08:04:00 AM 32.3530 118.9304 295° West  Level Estimated
Fri 08:05:00 AM 32.3905 118.8370 295° West  Level Estimated
Fri 08:06:00 AM 32.4279 118.7435 295° West  Level Estimated
Fri 08:07:00 AM 32.4652 118.6499 295° West  Level Estimated
Fri 08:08:00 AM 32.5025 118.5562 295° West  Level Estimated
Fri 08:09:00 AM 32.5397 118.4625 295° West  Level Estimated
Fri 08:10:00 AM 32.5769 118.3687 295° West  Level Estimated
Fri 08:11:00 AM 32.6139 118.2748 295° West  Level Estimated
Fri 08:12:00 AM 32.6510 118.1808 295° West  Level Estimated
Fri 08:13:00 AM 32.6879 118.0868 295° West  Level Estimated
Fri 08:14:00 AM 32.7247 117.9927 295° West  Level Estimated
Fri 08:15:00 AM 32.7615 117.8985 295° West  Level Estimated
Fri 08:16:00 AM 32.7982 117.8042 295° West  Level Estimated
Fri 08:17:00 AM 32.8349 117.7099 295° West  Level Estimated
Fri 08:18:00 AM 32.8715 117.6154 295° West  Level Estimated
Fri 08:19:00 AM 32.9080 117.5209 295° West  Level Estimated
Fri 08:20:00 AM 32.9444 117.4263 295° West  Level Estimated
Fri 08:21:00 AM 32.9808 117.3317 295° West  Level Estimated
Fri 08:22:00 AM 33.0171 117.2369 295° West  Level Estimated
Fri 08:23:00 AM 33.0533 117.1421 295° West  Level Estimated
Fri 08:24:00 AM 33.0895 117.0472 294° West  Level Estimated
Fri 08:25:00 AM 33.1255 116.9522 294° West  Level Estimated
Fri 08:26:00 AM 33.1591 116.8637 294° West  Level Estimated
Fri 08:27:00 AM 33.1926 116.7751 294° West  Level Estimated
Fri 08:28:00 AM 33.2260 116.6864 294° West  Level Estimated
Fri 08:29:00 AM 33.2593 116.5977 294° West  Level Estimated
Fri 08:30:00 AM 33.2926 116.5089 294° West  Level Estimated
Fri 08:31:00 AM 33.3258 116.4200 294° West  Level Estimated
Fri 08:32:00 AM 33.3590 116.3311 294° West  Level Estimated
Fri 08:33:00 AM 33.3921 116.2421 294° West  Level Estimated
Fri 08:34:00 AM 33.4251 116.1530 294° West  Level Estimated
Fri 08:35:00 AM 33.4581 116.0639 294° West  Level Estimated
Fri 08:36:00 AM 33.4910 115.9747 294° West  Level Estimated
Fri 08:37:00 AM 33.5238 115.8854 294° West  Level Estimated
Fri 08:38:00 AM 33.5566 115.7961 294° West  Level Estimated
Fri 08:39:00 AM 33.5893 115.7067 294° West  Level Estimated
Fri 08:40:00 AM 33.6220 115.6172 294° West  Level Estimated
Fri 08:41:00 AM 33.6546 115.5276 294° West  Level Estimated
Fri 08:42:00 AM 33.6871 115.4380 294° West  Level Estimated
Fri 08:43:00 AM 33.7195 115.3484 294° West  Level Estimated
Fri 08:44:00 AM 33.7519 115.2586 293° West  Level Estimated
Fri 08:45:00 AM 33.7843 115.1688 293° West  Level Estimated
Fri 08:46:00 AM 33.8165 115.0789 293° West  Level Estimated
Fri 08:47:00 AM 33.8487 114.9890 293° West  Level Estimated
Fri 08:48:00 AM 33.8808 114.8989 293° West  Level Estimated
Fri 08:49:00 AM 33.9129 114.8089 293° West  Level Estimated
Fri 08:50:00 AM 33.9449 114.7187 293° West  Level Estimated
Fri 08:51:00 AM 33.9768 114.6285 293° West  Level Estimated
Fri 08:52:00 AM 34.0087 114.5382 293° West  Level Estimated
Fri 08:53:00 AM 34.0405 114.4478 293° West  Level Estimated
Fri 08:54:00 AM 34.0722 114.3574 293° West  Level Estimated
Fri 08:55:00 AM 34.1039 114.2669 293° West  Level Estimated
Fri 08:56:00 AM 34.1355 114.1764 293° West  Level Estimated
Fri 08:57:00 AM 34.1670 114.0857 293° West  Level Estimated
Fri 08:58:00 AM 34.1985 113.9950 293° West  Level Estimated
Fri 08:59:00 AM 34.2299 113.9043 293° West  Level Estimated
Fri 09:00:00 AM 34.2612 113.8134 293° West  Level Estimated
Fri 09:01:00 AM 34.2925 113.7225 293° West  Level Estimated
Fri 09:02:00 AM 34.3237 113.6316 293° West  Level Estimated
Fri 09:03:00 AM 34.3548 113.5405 293° West  Level Estimated
Fri 09:04:00 AM 34.3859 113.4494 292° West  Level Estimated
Fri 09:05:00 AM 34.4169 113.3583 292° West  Level Estimated
Fri 09:06:00 AM 34.4478 113.2670 292° West  Level Estimated
Fri 09:07:00 AM 34.4787 113.1757 292° West  Level Estimated
Fri 09:08:00 AM 34.5095 113.0844 292° West  Level Estimated
Fri 09:09:00 AM 34.5402 112.9929 292° West  Level Estimated
Fri 09:10:00 AM 34.5709 112.9014 292° West  Level Estimated
Fri 09:11:00 AM 34.6015 112.8098 292° West  Level Estimated
Fri 09:12:00 AM 34.6320 112.7182 292° West  Level Estimated
Fri 09:13:00 AM 34.6624 112.6265 292° West  Level Estimated
Fri 09:14:00 AM 34.6928 112.5347 292° West  Level Estimated
Fri 09:15:00 AM 34.7231 112.4429 292° West  Level Estimated
Fri 09:16:00 AM 34.7411 112.3883 292° West  Level Estimated
Fri 09:17:00 AM 34.7411 112.3883 68° East  Level Estimated
Fri 09:18:00 AM 34.7411 112.3883 68° East  Level Estimated
Fri 09:19:00 AM 34.7411 112.3883 68° East  Level Estimated
Fri 09:20:00 AM 34.7411 112.3883 68° East  Level Estimated
Fri 09:21:00 AM 34.7411 112.3883 68° East  Level Estimated
Fri 09:22:00 AM 34.7411 112.3883 68° East  Level Estimated
Fri 09:23:00 AM 34.7411 112.3883 68° East  Level Estimated
Fri 09:24:00 AM 34.7411 112.3883 68° East  Level Estimated
Fri 09:25:00 AM 34.7411 112.3883 68° East  Level Estimated
Fri 09:26:00 AM 34.7411 112.3883 68° East  Level Estimated
Fri 09:27:00 AM 34.7411 112.3883 68° East  Level Estimated
Fri 09:28:00 AM 34.7411 112.3883 68° East  Level Estimated
Fri 09:29:00 AM 34.7411 112.3883 68° East  Level Estimated

Login

Don't have an account? Register now (free) for customized features, flight alerts, and more!